Time;durP1;ratioP1;P1;durP2;ratioP2;P2;SDS_P1;SDS_P2;PMS_P1;PMS_P2;Temp;Humidity;BMP_temperature;BMP_pressure;BME280_temperature;BME280_humidity;BME280_pressure;Samples;Min_cycle;Max_cycle;Signal;HPM_P1;HPM_P2
2023/10/14 00:01:27;;;;;;;4.32;1.77;;;;;;;18.42;68.53;100111.22;5120055;28;20169;-70
2023/10/14 00:03:56;;;;;;;2.80;1.30;;;;;;;18.35;68.37;100100.69;5123936;28;20043;-70
2023/10/14 00:06:26;;;;;;;3.70;1.15;;;;;;;18.29;68.21;100104.56;5121759;28;20086;-70
2023/10/14 00:08:57;;;;;;;1.67;0.75;;;;;;;18.24;68.38;100123.66;5115426;28;20111;-70
2023/10/14 00:11:32;;;;;;;5.97;0.80;;;;;;;18.21;68.49;100144.09;5122289;28;20043;-70
2023/10/14 00:14:09;;;;;;;2.40;1.10;;;;;;;18.15;68.43;100128.94;5119114;28;20042;-70
2023/10/14 00:16:41;;;;;;;1.73;0.70;;;;;;;18.16;68.37;100125.13;5121197;28;20099;-70
2023/10/14 00:19:10;;;;;;;1.27;0.82;;;;;;;18.14;68.36;100135.47;5115470;28;20044;-69
2023/10/14 00:21:39;;;;;;;1.55;0.60;;;;;;;18.12;68.40;100126.78;5118667;28;20047;-69
2023/10/14 00:24:07;;;;;;;1.13;0.70;;;;;;;18.12;68.40;100145.03;5118938;28;20048;-70
2023/10/14 00:26:36;;;;;;;1.85;0.70;;;;;;;18.06;68.21;100144.25;5122988;28;20058;-70
2023/10/14 00:29:18;;;;;;;1.27;0.63;;;;;;;18.12;68.28;100139.56;5117256;28;20116;-70
2023/10/14 00:31:47;;;;;;;1.42;0.50;;;;;;;18.12;68.42;100134.94;5118966;28;20056;-70
2023/10/14 00:34:15;;;;;;;1.92;0.70;;;;;;;18.13;68.43;100157.50;5120797;28;20070;-70
2023/10/14 00:36:44;;;;;;;1.08;0.60;;;;;;;18.13;68.56;100165.69;5117915;28;20054;-70
2023/10/14 00:39:16;;;;;;;2.42;0.70;;;;;;;18.12;68.19;100159.44;5121101;28;20082;-70
2023/10/14 00:41:46;;;;;;;1.05;0.55;;;;;;;18.10;68.26;100169.78;5119967;28;20121;-70
2023/10/14 00:44:15;;;;;;;1.60;0.68;;;;;;;18.10;68.39;100186.09;5119489;28;20055;-70
2023/10/14 00:46:48;;;;;;;1.30;0.60;;;;;;;18.09;68.32;100189.91;5118859;28;20047;-69
2023/10/14 00:49:17;;;;;;;2.05;0.65;;;;;;;18.08;68.37;100193.72;5120625;28;20047;-70
2023/10/14 00:51:49;;;;;;;1.48;0.70;;;;;;;18.06;68.31;100181.53;5121425;28;20047;-69
2023/10/14 00:54:27;;;;;;;1.45;0.60;;;;;;;18.01;68.01;100184.28;5117803;28;20077;-70
2023/10/14 00:57:01;;;;;;;2.70;1.00;;;;;;;18.05;68.30;100190.78;5118606;28;20070;-69
2023/10/14 00:59:30;;;;;;;1.85;0.93;;;;;;;18.03;67.99;100192.97;5120902;28;20070;-69
2023/10/14 01:01:58;;;;;;;2.72;0.93;;;;;;;18.02;68.02;100192.16;5121766;28;20065;-69
2023/10/14 01:04:32;;;;;;;0.70;0.50;;;;;;;18.00;68.09;100190.81;5121776;28;20044;-70
2023/10/14 01:07:04;;;;;;;1.45;0.73;;;;;;;17.99;68.04;100195.47;5123989;28;20048;-70
2023/10/14 01:09:48;;;;;;;0.77;0.50;;;;;;;17.97;68.15;100208.53;5117715;28;20040;-69
2023/10/14 01:12:40;;;;;;;2.10;0.77;;;;;;;17.96;68.07;100216.97;5126282;28;20098;-68
2023/10/14 01:15:20;;;;;;;2.28;1.00;;;;;;;17.94;68.00;100224.59;5123093;28;20099;-69
2023/10/14 01:17:52;;;;;;;1.52;0.80;;;;;;;17.93;67.94;100229.22;5117026;28;20139;-69
2023/10/14 01:20:37;;;;;;;1.48;0.90;;;;;;;17.94;68.13;100239.00;5122794;28;20055;-68
2023/10/14 01:23:14;;;;;;;3.70;0.70;;;;;;;17.95;68.27;100242.53;5123944;28;20043;-69
2023/10/14 01:25:47;;;;;;;2.08;0.60;;;;;;;17.94;68.33;100252.59;5121546;28;20237;-69
2023/10/14 01:28:21;;;;;;;3.80;0.90;;;;;;;17.95;68.55;100267.00;5125447;28;20101;-70
2023/10/14 01:31:32;;;;;;;2.83;1.30;;;;;;;17.92;68.44;100271.09;5124191;28;20044;-69
2023/10/14 01:34:01;;;;;;;2.42;1.17;;;;;;;17.89;68.27;100277.09;5119338;28;20050;-69
2023/10/14 01:36:32;;;;;;;2.80;0.85;;;;;;;17.81;66.60;100304.91;5121185;28;20042;-69
2023/10/14 01:39:04;;;;;;;1.15;0.85;;;;;;;17.70;66.63;100311.50;5122896;28;20044;-69
2023/10/14 01:41:34;;;;;;;1.85;1.02;;;;;;;17.65;66.83;100311.50;5124135;28;20385;-69
2023/10/14 01:44:05;;;;;;;3.28;1.38;;;;;;;17.61;66.56;100316.69;5120987;28;20142;-69
2023/10/14 01:46:34;;;;;;;6.28;1.13;;;;;;;17.60;66.49;100323.22;5123749;28;20094;-69
2023/10/14 01:49:10;;;;;;;1.00;0.63;;;;;;;17.61;66.66;100337.63;5119431;28;20085;-69
2023/10/14 01:51:38;;;;;;;2.30;0.88;;;;;;;17.60;66.35;100344.13;5121616;28;20116;-69
2023/10/14 01:54:10;;;;;;;3.45;0.90;;;;;;;17.58;66.28;100350.66;5125193;28;20069;-69
2023/10/14 01:56:38;;;;;;;2.53;1.30;;;;;;;17.58;66.48;100358.81;5122526;28;20052;-70
2023/10/14 01:59:07;;;;;;;2.58;1.02;;;;;;;17.58;66.30;100366.97;5118335;28;20043;-69
2023/10/14 02:01:41;;;;;;;2.08;0.80;;;;;;;17.55;66.45;100372.97;5120338;28;20048;-69
2023/10/14 02:04:09;;;;;;;4.55;1.33;;;;;;;17.51;65.87;100385.50;5119890;28;20598;-69
2023/10/14 02:06:43;;;;;;;5.18;1.73;;;;;;;17.46;65.82;100404.53;5121488;28;20055;-69
2023/10/14 02:09:12;;;;;;;6.78;1.30;;;;;;;17.42;65.96;100411.59;5123230;28;20126;-69
2023/10/14 02:11:40;;;;;;;2.40;1.08;;;;;;;17.39;65.93;100416.78;5120918;28;20104;-69
2023/10/14 02:14:09;;;;;;;9.02;1.73;;;;;;;17.37;65.87;100418.97;5121884;28;20059;-68
2023/10/14 02:16:42;;;;;;;5.82;1.42;;;;;;;17.37;65.82;100418.97;5119546;28;20518;-69
2023/10/14 02:19:18;;;;;;;5.63;1.17;;;;;;;17.36;65.88;100429.00;5119313;28;20374;-69
2023/10/14 02:21:47;;;;;;;5.65;1.40;;;;;;;17.36;65.66;100428.19;5122226;28;20053;-69
2023/10/14 02:24:18;;;;;;;6.90;1.77;;;;;;;17.35;65.65;100432.81;5122977;28;20036;-69
2023/10/14 02:26:48;;;;;;;9.55;2.13;;;;;;;17.33;65.75;100437.75;5124581;28;20708;-69
2023/10/14 02:29:17;;;;;;;6.32;1.75;;;;;;;17.34;65.60;100452.94;5123884;28;20044;-69
2023/10/14 02:31:45;;;;;;;8.50;1.70;;;;;;;17.33;65.64;100454.03;5122309;28;20043;-69
2023/10/14 02:34:15;;;;;;;7.72;1.98;;;;;;;17.33;65.27;100464.09;5119180;28;20084;-69
2023/10/14 02:36:48;;;;;;;9.88;1.98;;;;;;;17.33;65.53;100470.34;5123829;28;20081;-69
2023/10/14 02:39:26;;;;;;;9.10;1.75;;;;;;;17.32;65.41;100476.88;5122459;28;20052;-69
2023/10/14 02:42:00;;;;;;;9.40;3.13;;;;;;;17.23;65.30;100473.91;5119273;28;20062;-70
2023/10/14 02:44:30;;;;;;;8.45;1.83;;;;;;;17.30;65.43;100495.34;5123235;28;20040;-68
2023/10/14 02:47:03;;;;;;;8.85;1.77;;;;;;;17.30;65.41;100508.09;5123422;28;20071;-68
2023/10/14 02:49:37;;;;;;;5.82;2.05;;;;;;;17.28;65.45;100505.66;5121239;28;20124;-68
2023/10/14 02:52:10;;;;;;;12.57;2.08;;;;;;;17.28;65.41;100518.44;5122439;28;20138;-68
2023/10/14 02:54:43;;;;;;;8.13;1.90;;;;;;;17.28;65.50;100526.59;5121827;28;20056;-68
2023/10/14 02:57:23;;;;;;;7.60;2.38;;;;;;;17.27;65.31;100531.19;5123518;28;20051;-69
2023/10/14 02:59:55;;;;;;;7.10;2.05;;;;;;;17.26;65.29;100543.16;5120169;28;20468;-68
2023/10/14 03:02:27;;;;;;;5.75;1.50;;;;;;;17.24;65.20;100548.84;5122260;28;20489;-69
2023/10/14 03:05:09;;;;;;;9.20;1.88;;;;;;;17.21;65.27;100556.72;5122728;28;20044;-68
2023/10/14 03:07:50;;;;;;;7.13;2.53;;;;;;;17.22;65.19;100564.63;5119341;28;20069;-69
2023/10/14 03:10:28;;;;;;;15.15;2.75;;;;;;;17.21;64.95;100565.69;5120810;28;20089;-69
2023/10/14 03:12:57;;;;;;;17.30;2.70;;;;;;;17.22;65.01;100577.38;5123112;28;20116;-69
2023/10/14 03:15:28;;;;;;;8.10;2.00;;;;;;;17.21;64.87;100582.00;5120090;28;20077;-69
2023/10/14 03:17:58;;;;;;;8.60;2.08;;;;;;;17.21;65.08;100592.84;5121329;28;20079;-68
2023/10/14 03:20:40;;;;;;;11.30;2.58;;;;;;;17.20;64.78;100595.84;5119997;28;20058;-68
2023/10/14 03:23:12;;;;;;;9.65;2.33;;;;;;;17.18;64.98;100606.97;5120885;28;20069;-69
2023/10/14 03:25:42;;;;;;;11.95;3.03;;;;;;;17.16;64.48;100611.06;5122484;28;20062;-69
2023/10/14 03:28:14;;;;;;;11.25;1.55;;;;;;;17.14;64.35;100629.50;5123650;28;20051;-68
2023/10/14 03:30:45;;;;;;;17.15;2.88;;;;;;;17.10;64.19;100625.72;5118879;28;20079;-69
2023/10/14 03:33:14;;;;;;;8.88;2.20;;;;;;;17.08;63.53;100633.31;5123047;28;20048;-68
2023/10/14 03:35:44;;;;;;;7.25;1.95;;;;;;;17.06;63.20;100639.00;5117158;28;20044;-69
2023/10/14 03:38:25;;;;;;;9.38;2.20;;;;;;;17.06;63.45;100647.16;5120262;28;20123;-68
2023/10/14 03:41:03;;;;;;;8.75;2.10;;;;;;;17.04;63.29;100649.34;5120769;28;20062;-69
2023/10/14 03:43:41;;;;;;;9.48;2.85;;;;;;;17.04;63.19;100659.38;5117312;28;20047;-68
2023/10/14 03:46:12;;;;;;;8.32;2.40;;;;;;;17.02;63.11;100662.34;5121707;28;20052;-68
2023/10/14 03:48:47;;;;;;;11.15;2.92;;;;;;;17.01;63.16;100660.72;5120355;28;20111;-68
2023/10/14 03:51:22;;;;;;;7.07;2.33;;;;;;;17.00;63.06;100671.84;5117559;28;20047;-68
2023/10/14 03:53:52;;;;;;;7.83;2.63;;;;;;;16.98;62.70;100688.41;5120319;28;20057;-68
2023/10/14 03:56:24;;;;;;;11.20;2.10;;;;;;;16.88;62.77;100677.53;5122635;28;20103;-69
2023/10/14 03:58:55;;;;;;;8.60;2.63;;;;;;;16.91;62.58;100696.81;5120993;28;20043;-69
2023/10/14 04:01:23;;;;;;;8.98;2.65;;;;;;;16.92;62.71;100706.59;5121037;28;21233;-69
2023/10/14 04:03:53;;;;;;;10.57;3.40;;;;;;;16.91;62.52;100709.56;5123061;28;20078;-69
2023/10/14 04:06:21;;;;;;;11.98;2.00;;;;;;;16.82;62.35;100703.84;5113188;28;20073;-69
2023/10/14 04:08:49;;;;;;;8.40;2.58;;;;;;;16.86;62.06;100712.28;5120994;28;20051;-68
2023/10/14 04:11:25;;;;;;;7.72;2.58;;;;;;;16.86;62.08;100721.22;5121784;28;20043;-69
2023/10/14 04:14:03;;;;;;;6.03;1.98;;;;;;;16.85;62.00;100733.16;5118502;28;20107;-69
2023/10/14 04:16:48;;;;;;;13.30;2.42;;;;;;;16.81;62.03;100739.41;5120136;28;20047;-69
2023/10/14 04:19:27;;;;;;;8.38;2.25;;;;;;;16.79;61.78;100745.09;5118285;28;20044;-69
2023/10/14 04:21:59;;;;;;;10.63;2.80;;;;;;;16.76;61.61;100753.75;5111913;28;20138;-69
2023/10/14 04:24:45;;;;;;;12.63;2.88;;;;;;;16.74;61.77;100757.81;5118034;28;20047;-69
2023/10/14 04:27:33;;;;;;;10.57;2.95;;;;;;;16.73;61.51;100764.34;5117095;28;20384;-69
2023/10/14 04:30:11;;;;;;;;;;;;;;;16.71;61.58;100774.63;5120266;28;20065;-69
2023/10/14 04:32:46;;;;;;;10.10;2.30;;;;;;;16.68;61.61;100786.84;5121694;28;19924;-68
2023/10/14 04:35:19;;;;;;;11.13;2.42;;;;;;;16.67;61.40;100773.53;5120643;28;20067;-69
2023/10/14 04:37:53;;;;;;;11.48;2.85;;;;;;;16.64;61.15;100777.56;5126456;28;20047;-69
2023/10/14 04:40:36;;;;;;;10.80;2.35;;;;;;;16.62;61.21;100793.28;5118258;28;20078;-68
2023/10/14 04:43:13;;;;;;;15.93;2.65;;;;;;;16.60;61.26;100793.53;5122121;28;20047;-69
2023/10/14 04:45:45;;;;;;;9.63;2.47;;;;;;;16.58;60.92;100800.31;5123854;28;20469;-68
2023/10/14 04:48:15;;;;;;;6.50;2.03;;;;;;;16.56;61.18;100800.56;5122993;28;20059;-69
2023/10/14 04:50:43;;;;;;;9.18;1.90;;;;;;;16.54;61.06;100804.63;5123508;28;20170;-69
2023/10/14 04:53:13;;;;;;;7.65;2.05;;;;;;;16.51;61.04;100805.97;5124523;28;20509;-68
2023/10/14 04:55:44;;;;;;;17.20;2.78;;;;;;;16.44;60.90;100807.28;5125620;28;20047;-69
2023/10/14 04:58:23;;;;;;;10.57;2.20;;;;;;;16.48;61.03;100822.78;5122417;28;20056;-68
2023/10/14 05:00:57;;;;;;;8.68;2.42;;;;;;;16.44;61.17;100818.94;5122501;28;20113;-69
2023/10/14 05:03:25;;;;;;;10.50;2.80;;;;;;;16.46;61.08;100833.06;5126589;28;20044;-68
2023/10/14 05:05:55;;;;;;;15.18;3.78;;;;;;;16.42;61.03;100831.13;5123308;28;20115;-69
2023/10/14 05:08:27;;;;;;;10.25;2.38;;;;;;;16.44;60.99;100848.78;5122756;28;20065;-69
2023/10/14 05:10:56;;;;;;;9.00;2.70;;;;;;;16.42;61.10;100850.94;5124251;28;20075;-69
2023/10/14 05:13:31;;;;;;;8.13;2.45;;;;;;;16.43;61.29;100852.59;5122530;28;20047;-69
2023/10/14 05:16:15;;;;;;;13.43;3.00;;;;;;;16.41;61.05;100856.63;5124421;28;20075;-69
2023/10/14 05:18:58;;;;;;;9.07;2.00;;;;;;;16.40;61.15;100863.13;5123053;28;20065;-69
2023/10/14 05:21:36;;;;;;;12.30;2.50;;;;;;;16.38;61.29;100862.56;5118897;28;20119;-68
2023/10/14 05:24:05;;;;;;;5.90;1.98;;;;;;;16.24;61.25;100854.88;4406714;28;10000702;-70
2023/10/14 05:26:36;;;;;;;10.20;2.53;;;;;;;16.35;61.08;100882.91;5119195;28;20082;-69
2023/10/14 05:29:11;;;;;;;8.32;2.58;;;;;;;16.34;61.03;100877.72;5118111;28;20050;-70
2023/10/14 05:31:40;;;;;;;12.88;2.70;;;;;;;16.32;60.89;100880.72;5118457;28;20055;-70
2023/10/14 05:34:09;;;;;;;10.50;2.47;;;;;;;16.30;61.04;100882.03;5118096;28;20097;-70
2023/10/14 05:36:38;;;;;;;5.47;2.03;;;;;;;16.30;61.06;100884.75;5113545;28;20066;-69
2023/10/14 05:39:10;;;;;;;6.97;2.40;;;;;;;16.28;60.88;100885.00;5121388;28;20043;-70
2023/10/14 05:41:38;;;;;;;13.77;3.53;;;;;;;16.22;60.83;100889.56;5120416;28;20058;-72
2023/10/14 05:44:06;;;;;;;7.95;2.22;;;;;;;16.22;60.68;100897.72;5119209;28;20546;-70
2023/10/14 05:46:35;;;;;;;12.40;2.53;;;;;;;16.21;60.66;100901.50;5122480;28;20086;-71
2023/10/14 05:49:05;;;;;;;12.07;2.17;;;;;;;16.20;60.69;100913.41;5114927;28;20082;-71
2023/10/14 05:51:33;;;;;;;10.80;2.20;;;;;;;16.19;60.51;100913.69;5118733;28;20047;-69
2023/10/14 05:54:01;;;;;;;7.50;1.90;;;;;;;16.16;60.57;100909.59;5119265;28;20081;-69
2023/10/14 05:56:29;;;;;;;8.20;2.65;;;;;;;16.15;60.49;100923.41;5119912;28;20047;-69
2023/10/14 05:58:57;;;;;;;8.65;1.90;;;;;;;16.11;60.67;100923.09;5118682;28;20051;-67
2023/10/14 06:01:25;;;;;;;7.47;2.42;;;;;;;16.13;60.53;100934.50;5119219;28;20051;-68
2023/10/14 06:03:53;;;;;;;17.88;3.72;;;;;;;16.11;60.53;100938.53;5120507;28;20077;-68
2023/10/14 06:06:22;;;;;;;13.82;3.03;;;;;;;16.11;60.56;100949.38;5121084;28;20047;-68
2023/10/14 06:08:50;;;;;;;8.30;2.03;;;;;;;16.09;60.45;100946.13;5120230;28;20054;-68
2023/10/14 06:11:18;;;;;;;10.43;2.35;;;;;;;16.09;60.47;100954.25;5120672;28;20072;-69
2023/10/14 06:13:46;;;;;;;10.65;2.83;;;;;;;16.08;60.46;100956.13;5116192;28;20069;-70
2023/10/14 06:16:14;;;;;;;7.65;2.25;;;;;;;16.07;60.56;100965.34;5119775;28;20064;-70
2023/10/14 06:18:43;;;;;;;9.07;2.65;;;;;;;15.95;60.45;100951.13;5120900;28;20123;-71
2023/10/14 06:21:12;;;;;;;8.80;2.30;;;;;;;16.05;60.40;100980.22;5119582;28;20504;-71
2023/10/14 06:23:46;;;;;;;8.55;2.40;;;;;;;16.02;60.38;100984.28;5118597;28;20069;-71
2023/10/14 06:26:17;;;;;;;11.38;3.13;;;;;;;16.02;60.34;100981.56;5113277;28;20535;-71
2023/10/14 06:28:45;;;;;;;11.93;2.20;;;;;;;15.93;60.40;100978.47;5121641;28;20047;-72
2023/10/14 06:31:13;;;;;;;13.50;2.08;;;;;;;15.98;60.66;100994.00;5122589;28;20052;-72
2023/10/14 06:33:41;;;;;;;10.90;2.92;;;;;;;15.97;60.79;100995.06;5122075;28;20048;-72
2023/10/14 06:36:13;;;;;;;4.25;1.67;;;;;;;15.97;60.75;100999.66;5112787;28;20077;-72
2023/10/14 06:38:44;;;;;;;6.68;2.05;;;;;;;15.97;60.62;101016.75;5122764;28;20142;-72
2023/10/14 06:41:16;;;;;;;10.43;1.90;;;;;;;15.96;60.78;101023.25;5122872;28;20055;-72
2023/10/14 06:43:47;;;;;;;8.60;2.83;;;;;;;15.94;60.56;101028.91;5113270;28;20074;-73
2023/10/14 06:46:16;;;;;;;12.27;2.97;;;;;;;15.92;60.87;101039.19;5121433;28;20055;-72
2023/10/14 06:48:45;;;;;;;10.85;2.78;;;;;;;15.92;60.32;101046.50;5117581;28;20051;-71
2023/10/14 06:51:13;;;;;;;11.68;2.72;;;;;;;15.89;60.32;101036.16;5119082;28;20428;-72
2023/10/14 06:53:43;;;;;;;12.65;2.42;;;;;;;15.88;60.49;101053.50;5122287;28;20503;-72
2023/10/14 06:56:11;;;;;;;8.70;1.85;;;;;;;15.88;60.49;101058.91;5120853;28;20058;-72
2023/10/14 06:58:39;;;;;;;11.13;2.22;;;;;;;15.84;60.22;101053.19;5108911;28;20070;-71
2023/10/14 07:01:07;;;;;;;8.68;2.47;;;;;;;15.84;60.39;101063.19;5112128;28;20122;-74
2023/10/14 07:03:35;;;;;;;12.93;2.25;;;;;;;15.81;60.83;101069.94;5118274;28;20048;-69
2023/10/14 07:06:04;;;;;;;16.27;3.20;;;;;;;15.68;59.69;101075.72;5118060;28;20051;-71
2023/10/14 07:08:33;;;;;;;23.55;3.05;;;;;;;15.66;59.97;101072.44;5117154;28;20044;-68
2023/10/14 07:11:02;;;;;;;11.10;2.58;;;;;;;15.64;60.04;101077.28;5115613;28;20413;-71
2023/10/14 07:13:30;;;;;;;16.92;2.70;;;;;;;15.63;59.60;101084.59;5118825;28;20055;-73
2023/10/14 07:16:05;;;;;;;10.02;2.55;;;;;;;15.51;58.84;101094.72;5118646;28;20047;-72
2023/10/14 07:18:36;;;;;;;12.75;2.10;;;;;;;15.44;59.25;101096.78;5117033;28;20124;-73
2023/10/14 07:21:08;;;;;;;12.40;2.28;;;;;;;15.48;59.66;101102.53;5111461;28;20040;-74
2023/10/14 07:23:36;;;;;;;11.20;2.42;;;;;;;15.51;59.60;101105.56;5118573;28;20082;-71
2023/10/14 07:26:11;;;;;;;12.38;2.28;;;;;;;15.51;59.58;101096.59;5112083;28;20056;-69
2023/10/14 07:28:42;;;;;;;11.40;2.28;;;;;;;15.55;59.74;101103.16;5119680;28;20047;-68
2023/10/14 07:31:11;;;;;;;11.15;2.90;;;;;;;15.56;59.98;101102.91;5115014;28;20104;-71
2023/10/14 07:33:40;;;;;;;13.20;2.17;;;;;;;15.56;59.77;101105.63;5116156;28;20102;-68
2023/10/14 07:36:11;;;;;;;14.70;2.20;;;;;;;15.57;59.84;101109.19;5116087;28;20149;-70
2023/10/14 07:38:42;;;;;;;9.15;2.90;;;;;;;15.48;59.52;101108.75;5112912;28;20047;-70
2023/10/14 07:41:15;;;;;;;11.25;2.15;;;;;;;15.56;59.84;101123.78;5118810;28;20135;-69
2023/10/14 07:43:42;;;;;;;14.63;3.25;;;;;;;15.54;59.92;101126.72;5117313;28;20085;-71
2023/10/14 07:46:10;;;;;;;12.00;2.45;;;;;;;15.54;59.97;101125.91;5116950;28;20066;-69
2023/10/14 07:48:40;;;;;;;13.45;2.55;;;;;;;15.51;59.70;101143.47;5115403;28;20142;-70
2023/10/14 07:51:08;;;;;;;12.88;3.00;;;;;;;15.53;59.43;101135.94;5112304;28;20055;-69
2023/10/14 07:53:55;;;;;;;16.58;2.75;;;;;;;15.49;59.27;101142.09;5115370;28;20340;-69
2023/10/14 07:56:25;;;;;;;12.27;2.22;;;;;;;15.49;59.39;101148.31;5119904;28;20134;-70
2023/10/14 07:58:53;;;;;;;15.30;2.88;;;;;;;15.53;59.30;101146.75;5111361;28;20044;-69
2023/10/14 08:01:22;;;;;;;13.50;3.40;;;;;;;15.52;59.09;101153.25;5116984;28;20047;-67
2023/10/14 08:03:56;;;;;;;13.68;3.22;;;;;;;15.49;59.46;101161.88;5113908;28;20082;-66
2023/10/14 08:06:26;;;;;;;12.20;2.83;;;;;;;15.42;59.44;101153.09;5110499;28;20101;-65
2023/10/14 08:08:54;;;;;;;12.38;2.10;;;;;;;15.42;59.56;101160.38;5115562;28;20054;-66
2023/10/14 08:11:23;;;;;;;8.90;1.98;;;;;;;15.45;59.42;101174.25;5117552;28;20051;-66
2023/10/14 08:13:52;;;;;;;12.63;3.10;;;;;;;15.44;59.36;101164.50;5117752;28;20055;-66
2023/10/14 08:16:20;;;;;;;11.68;3.08;;;;;;;15.45;59.28;101182.38;5116558;28;20047;-65
2023/10/14 08:18:49;;;;;;;12.68;2.72;;;;;;;15.46;58.89;101183.22;5117485;28;20055;-65
2023/10/14 08:21:17;;;;;;;14.80;3.38;;;;;;;15.43;58.98;101181.81;5117652;28;20139;-64
2023/10/14 08:23:45;;;;;;;8.50;2.08;;;;;;;15.43;58.99;101184.53;5112385;28;20057;-63
2023/10/14 08:26:14;;;;;;;13.07;2.67;;;;;;;15.44;59.21;101197.00;5119422;28;20073;-66
2023/10/14 08:28:42;;;;;;;8.60;2.20;;;;;;;15.43;58.72;101197.25;5120055;28;20069;-66
2023/10/14 08:31:11;;;;;;;10.95;2.10;;;;;;;15.44;59.25;101190.75;5113933;28;20055;-66
2023/10/14 08:33:40;;;;;;;20.40;3.25;;;;;;;15.42;58.97;101201.84;5120197;28;20056;-66
2023/10/14 08:36:13;;;;;;;12.23;2.40;;;;;;;15.43;58.54;101208.09;5117317;28;20073;-66
2023/10/14 08:38:43;;;;;;;8.23;2.08;;;;;;;15.42;59.00;101203.72;5120026;28;20340;-66
2023/10/14 08:41:15;;;;;;;11.73;2.50;;;;;;;15.40;58.93;101208.56;5115492;28;20092;-65
2023/10/14 08:43:44;;;;;;;10.63;2.70;;;;;;;15.40;58.77;101219.41;5113566;28;20091;-66
2023/10/14 08:46:14;;;;;;;9.88;2.15;;;;;;;15.39;59.25;101225.88;5111526;28;20417;-65
2023/10/14 08:48:43;;;;;;;7.68;2.22;;;;;;;15.40;58.83;101231.06;5116664;28;20052;-65
2023/10/14 08:51:11;;;;;;;16.00;2.78;;;;;;;15.41;59.20;101245.41;5114743;28;20500;-66
2023/10/14 08:53:41;;;;;;;13.18;2.85;;;;;;;15.38;59.32;101235.06;5114695;28;20051;-66
2023/10/14 08:56:10;;;;;;;11.15;2.80;;;;;;;15.41;59.14;101240.00;5114928;28;20115;-66
2023/10/14 08:58:39;;;;;;;14.07;3.17;;;;;;;15.42;58.96;101245.19;5116868;28;20052;-66
2023/10/14 09:01:14;;;;;;;11.43;2.47;;;;;;;15.43;58.83;101249.53;5111213;28;20052;-65
2023/10/14 09:03:46;;;;;;;11.38;3.42;;;;;;;15.45;58.83;101243.88;5119036;28;20052;-65
2023/10/14 09:06:13;;;;;;;13.98;2.53;;;;;;;15.44;58.78;101245.75;5116952;28;20075;-65
2023/10/14 09:08:42;;;;;;;8.90;2.13;;;;;;;15.45;58.71;101252.81;5115935;28;20438;-65
2023/10/14 09:11:26;;;;;;;8.25;2.45;;;;;;;15.33;58.50;101240.41;5110693;28;20093;-66
2023/10/14 09:14:03;;;;;;;19.73;3.78;;;;;;;15.46;58.27;101259.06;5114462;28;20036;-66
2023/10/14 09:16:32;;;;;;;;;;;;;;;15.47;58.39;101266.94;5116006;28;20052;-65
2023/10/14 09:19:05;;;;;;;8.43;2.22;;;;;;;15.47;58.27;101258.00;5118103;28;19928;-66
2023/10/14 09:21:43;;;;;;;12.20;2.67;;;;;;;15.47;58.04;101256.09;5113711;28;20501;-66
2023/10/14 09:24:11;;;;;;;9.02;2.88;;;;;;;15.47;58.44;101266.94;5118129;28;20051;-67
2023/10/14 09:26:43;;;;;;;11.20;2.63;;;;;;;15.46;57.71;101261.75;5123627;28;20051;-66
2023/10/14 09:29:12;;;;;;;11.75;2.78;;;;;;;15.48;57.86;101263.16;5116928;28;20043;-71
2023/10/14 09:31:44;;;;;;;10.68;2.33;;;;;;;15.49;57.73;101264.81;5117787;28;20044;-66
2023/10/14 09:34:23;;;;;;;7.60;1.77;;;;;;;15.57;57.93;101269.84;5118314;28;20445;-65
2023/10/14 09:36:52;;;;;;;10.98;3.80;;;;;;;15.55;57.57;101268.44;5114905;28;20074;-67
2023/10/14 09:39:25;;;;;;;12.60;3.13;;;;;;;15.50;57.61;101273.75;5120287;28;20067;-67
2023/10/14 09:41:54;;;;;;;21.92;3.10;;;;;;;15.51;56.40;101278.94;5116099;28;20062;-68
2023/10/14 09:44:25;;;;;;;21.27;2.55;;;;;;;15.51;56.56;101276.22;5122475;28;20104;-66
2023/10/14 09:46:53;;;;;;;9.65;2.63;;;;;;;15.51;56.34;101281.63;5122360;28;20047;-68
2023/10/14 09:49:25;;;;;;;17.27;3.20;;;;;;;15.53;56.56;101282.22;5122987;28;20048;-66
2023/10/14 09:51:56;;;;;;;13.98;3.05;;;;;;;15.53;56.99;101279.50;5121713;28;20048;-66
2023/10/14 09:54:24;;;;;;;16.85;3.83;;;;;;;15.53;56.81;101284.94;5122457;28;20055;-67
2023/10/14 09:56:54;;;;;;;13.60;3.63;;;;;;;15.54;56.81;101293.88;5120150;28;20043;-67
2023/10/14 09:59:22;;;;;;;11.25;3.00;;;;;;;15.47;56.46;101280.47;5124311;28;20104;-66
2023/10/14 10:01:50;;;;;;;12.40;3.28;;;;;;;15.54;56.32;101281.16;5120246;28;20054;-68
2023/10/14 10:04:24;;;;;;;11.60;2.80;;;;;;;15.55;56.09;101287.41;5123283;28;20043;-69
2023/10/14 10:07:04;;;;;;;11.45;2.75;;;;;;;15.56;56.04;101281.72;5121130;28;20043;-70
2023/10/14 10:10:10;;;;;;;11.65;2.70;;;;;;;15.53;55.76;101281.41;5125540;28;20040;-73
2023/10/14 10:12:41;;;;;;;11.65;2.40;;;;;;;15.55;54.95;101282.78;5116894;28;20052;-68
2023/10/14 10:15:10;;;;;;;17.23;4.03;;;;;;;15.46;51.87;101286.97;5122355;28;20065;-73
2023/10/14 10:17:39;;;;;;;12.48;2.63;;;;;;;15.44;52.87;101291.81;5114576;28;20063;-72
2023/10/14 10:20:13;;;;;;;13.23;2.92;;;;;;;15.40;52.95;101281.69;5120342;28;20082;-73
2023/10/14 10:22:50;;;;;;;17.50;2.60;;;;;;;15.50;53.05;101287.31;5121254;28;20044;-72
2023/10/14 10:25:19;;;;;;;9.27;2.30;;;;;;;15.53;53.40;101303.88;5121612;28;20067;-73
2023/10/14 10:27:49;;;;;;;9.30;1.92;;;;;;;15.55;53.52;101300.94;5118744;28;20109;-73
2023/10/14 10:30:19;;;;;;;10.60;3.45;;;;;;;15.53;53.31;101306.59;5122996;28;20048;-72
2023/10/14 10:32:50;;;;;;;14.45;2.42;;;;;;;15.56;53.45;101306.09;5118031;28;20123;-72
2023/10/14 10:35:20;;;;;;;17.70;2.92;;;;;;;15.59;53.59;101302.94;5120796;28;20066;-71
2023/10/14 10:37:52;;;;;;;11.02;3.08;;;;;;;15.59;53.60;101311.06;5119226;28;20063;-71
2023/10/14 10:40:26;;;;;;;10.23;2.33;;;;;;;15.59;53.05;101311.06;5120748;28;20043;-71
2023/10/14 10:42:56;;;;;;;10.68;2.53;;;;;;;15.62;53.83;101321.41;5120106;28;20067;-68
2023/10/14 10:45:29;;;;;;;8.52;2.47;;;;;;;15.58;52.81;101314.84;5118757;28;20096;-73
2023/10/14 10:47:59;;;;;;;7.47;2.22;;;;;;;15.57;53.32;101313.22;5115805;28;20048;-71
2023/10/14 10:50:34;;;;;;;7.68;2.30;;;;;;;15.67;52.96;101322.56;5113319;28;20063;-69
2023/10/14 10:53:25;;;;;;;10.60;2.88;;;;;;;15.63;53.03;101316.78;5117654;28;20377;-67
2023/10/14 10:55:52;;;;;;;8.73;2.20;;;;;;;15.71;52.83;101324.53;5118978;28;20048;-67
2023/10/14 10:58:24;;;;;;;9.43;2.60;;;;;;;15.72;52.66;101331.59;5119098;28;20561;-69
2023/10/14 11:00:53;;;;;;;12.02;3.30;;;;;;;15.74;53.03;101334.06;5115978;28;20040;-68
2023/10/14 11:03:23;;;;;;;12.30;2.85;;;;;;;15.71;52.34;101334.53;5118851;28;20043;-67
2023/10/14 11:05:53;;;;;;;13.35;2.60;;;;;;;15.72;53.04;101347.84;5119515;28;20059;-67
2023/10/14 11:08:23;;;;;;;9.30;2.85;;;;;;;15.69;52.84;101333.97;5122886;28;20048;-67
2023/10/14 11:10:51;;;;;;;11.32;2.47;;;;;;;15.67;52.89;101334.22;5114665;28;20058;-67
2023/10/14 11:13:19;;;;;;;10.68;2.13;;;;;;;15.69;53.08;101339.38;5110336;28;20292;-67
2023/10/14 11:15:50;;;;;;;10.02;3.05;;;;;;;15.69;52.87;101331.25;5124184;28;20100;-67
2023/10/14 11:18:18;;;;;;;9.40;3.05;;;;;;;15.67;52.88;101334.22;5115856;28;20076;-67
2023/10/14 11:21:05;;;;;;;8.93;2.13;;;;;;;15.67;53.11;101328.78;5121342;28;20043;-67
2023/10/14 11:23:39;;;;;;;9.40;2.53;;;;;;;15.67;52.85;101334.22;5123667;28;20080;-67
2023/10/14 11:26:11;;;;;;;10.18;3.13;;;;;;;15.70;52.96;101327.47;5119856;28;20082;-67
2023/10/14 11:28:39;;;;;;;8.40;2.03;;;;;;;15.70;52.99;101335.63;5116281;28;20059;-67
2023/10/14 11:31:08;;;;;;;9.00;2.50;;;;;;;15.75;52.52;101333.00;5122736;28;20130;-67
2023/10/14 11:33:36;;;;;;;8.90;2.45;;;;;;;15.73;52.57;101335.13;5117564;28;20044;-66
2023/10/14 11:36:04;;;;;;;11.25;2.28;;;;;;;15.71;52.36;101337.25;5114301;28;20051;-67
2023/10/14 11:38:33;;;;;;;7.60;1.83;;;;;;;15.69;51.33;101342.09;5119545;28;20048;-67
2023/10/14 11:41:03;;;;;;;11.18;2.58;;;;;;;15.68;51.41;101349.41;5116838;28;20088;-66
2023/10/14 11:43:31;;;;;;;8.65;2.45;;;;;;;15.69;51.33;101347.53;5114961;28;20074;-67